Time;durP1;ratioP1;P1;durP2;ratioP2;P2;SDS_P1;SDS_P2;PMS_P1;PMS_P2;Temp;Humidity;BMP_temperature;BMP_pressure;BME280_temperature;BME280_humidity;BME280_pressure;Samples;Min_cycle;Max_cycle;Signal;HPM_P1;HPM_P2
2021/06/15 00:00:17;;;;;;;;;;;17.90;99.90;;;;;;5059546;28;19913;-78
2021/06/15 00:02:42;;;;;;;;;;;17.90;99.90;;;;;;5068669;28;19909;-81
2021/06/15 00:05:09;;;;;;;;;;;17.90;99.90;;;;;;5068179;28;20292;-82
2021/06/15 00:07:35;;;;;;;;;;;17.90;99.90;;;;;;5071947;28;20197;-81
2021/06/15 00:10:00;;;;;;;;;;;17.90;99.90;;;;;;5073183;28;19930;-78
2021/06/15 00:12:26;;;;;;;;;;;17.90;99.90;;;;;;5070790;28;19952;-79
2021/06/15 00:14:52;;;;;;;;;;;17.90;99.90;;;;;;5073254;28;20387;-77
2021/06/15 00:17:17;;;;;;;;;;;17.90;99.90;;;;;;5071205;28;20311;-81
2021/06/15 00:19:43;;;;;;;;;;;17.90;99.90;;;;;;5073402;28;19920;-78
2021/06/15 00:22:08;;;;;;;;;;;17.90;99.90;;;;;;5073569;28;20003;-79
2021/06/15 00:24:34;;;;;;;;;;;17.90;99.90;;;;;;5072611;28;20303;-75
2021/06/15 00:26:59;;;;;;;;;;;17.90;99.90;;;;;;5073242;28;19916;-79
2021/06/15 00:29:25;;;;;;;;;;;17.90;99.90;;;;;;5071061;28;20000;-79
2021/06/15 00:31:50;;;;;;;;;;;17.90;99.90;;;;;;5072430;28;20307;-78
2021/06/15 00:34:16;;;;;;;;;;;17.80;99.90;;;;;;5071996;28;19908;-76
2021/06/15 00:36:42;;;;;;;;;;;17.80;99.90;;;;;;5072257;28;19916;-79
2021/06/15 00:39:07;;;;;;;;;;;17.80;99.90;;;;;;5072275;28;20295;-75
2021/06/15 00:41:33;;;;;;;;;;;17.80;99.90;;;;;;5069078;28;19908;-79
2021/06/15 00:43:59;;;;;;;;;;;17.70;99.90;;;;;;5066953;28;20280;-80
2021/06/15 00:46:24;;;;;;;;;;;17.70;99.90;;;;;;5068420;28;19982;-80
2021/06/15 00:48:50;;;;;;;;;;;17.70;99.90;;;;;;5072853;28;20031;-80
2021/06/15 00:51:16;;;;;;;;;;;17.70;99.90;;;;;;5065494;28;19917;-81
2021/06/15 00:53:41;;;;;;;;;;;17.70;99.90;;;;;;5072524;28;20215;-80
2021/06/15 00:56:07;;;;;;;;;;;17.70;99.90;;;;;;5071088;28;19909;-81
2021/06/15 00:58:33;;;;;;;;;;;17.60;99.90;;;;;;5065879;28;19908;-81
2021/06/15 01:00:58;;;;;;;;;;;17.60;99.90;;;;;;5067755;28;19909;-81
2021/06/15 01:03:24;;;;;;;;;;;17.60;99.90;;;;;;5066306;28;20566;-80
2021/06/15 01:05:50;;;;;;;;;;;17.60;99.90;;;;;;5071271;28;19933;-80
2021/06/15 01:08:19;;;;;;;;;;;17.60;99.90;;;;;;5073465;28;19920;-80
2021/06/15 01:10:47;;;;;;;;;;;17.60;99.90;;;;;;5075578;28;19918;-78
2021/06/15 01:13:22;;;;;;;;;;;17.60;99.90;;;;;;5074230;28;19908;-75
2021/06/15 01:15:56;;;;;;;;;;;17.60;99.90;;;;;;5074970;28;20303;-81
2021/06/15 01:18:24;;;;;;;;;;;17.60;99.90;;;;;;5070029;28;19957;-77
2021/06/15 01:20:50;;;;;;;;;;;17.60;99.90;;;;;;5074579;28;19908;-80
2021/06/15 01:23:32;;;;;;;;;;;17.60;99.90;;;;;;5070771;28;19912;-82
2021/06/15 01:26:04;;;;;;;;;;;17.60;99.90;;;;;;5074957;28;19909;-81
2021/06/15 01:28:45;;;;;;;;;;;17.60;99.90;;;;;;5073290;28;20310;-81
2021/06/15 01:31:19;;;;;;;;;;;17.60;99.90;;;;;;5073493;28;19981;-81
2021/06/15 01:33:47;;;;;;;;;;;17.60;99.90;;;;;;5064633;28;19962;-81
2021/06/15 01:36:14;;;;;;;;;;;17.50;99.90;;;;;;5075054;28;19917;-80
2021/06/15 01:38:42;;;;;;;;;;;17.50;99.90;;;;;;5073950;28;19948;-78
2021/06/15 01:41:09;;;;;;;;;;;17.50;99.90;;;;;;5069343;28;19917;-78
2021/06/15 01:43:45;;;;;;;;;;;17.50;99.90;;;;;;5069193;28;19923;-83
2021/06/15 01:46:12;;;;;;;;;;;17.40;99.90;;;;;;5066025;28;20006;-81
2021/06/15 01:48:39;;;;;;;;;;;17.40;99.90;;;;;;5069404;28;20331;-82
2021/06/15 01:51:06;;;;;;;;;;;17.40;99.90;;;;;;5064003;28;19920;-80
2021/06/15 01:53:33;;;;;;;;;;;17.40;99.90;;;;;;5071990;28;19913;-81
2021/06/15 01:56:01;;;;;;;;;;;17.40;99.90;;;;;;5070621;28;20260;-76
2021/06/15 01:58:28;;;;;;;;;;;17.40;99.90;;;;;;5067455;28;19909;-79
2021/06/15 02:00:55;;;;;;;;;;;17.40;99.90;;;;;;5066778;28;20006;-79
2021/06/15 02:03:21;;;;;;;;;;;17.30;99.90;;;;;;5063040;28;20328;-78
2021/06/15 02:05:49;;;;;;;;;;;17.40;99.90;;;;;;5074622;28;19945;-82
2021/06/15 02:08:33;;;;;;;;;;;17.40;99.90;;;;;;5072812;28;20066;-76
2021/06/15 02:10:59;;;;;;;;;;;17.30;99.90;;;;;;5071865;28;19913;-77
2021/06/15 02:13:26;;;;;;;;;;;17.30;99.90;;;;;;5073967;28;20007;-81
2021/06/15 02:15:52;;;;;;;;;;;17.30;99.90;;;;;;5073183;28;20269;-76
2021/06/15 02:18:20;;;;;;;;;;;17.30;99.90;;;;;;5073675;28;19908;-75
2021/06/15 02:20:46;;;;;;;;;;;17.30;99.90;;;;;;5074235;28;19919;-75
2021/06/15 02:23:12;;;;;;;;;;;17.30;99.90;;;;;;5074312;28;19912;-75
2021/06/15 02:25:39;;;;;;;;;;;17.30;99.90;;;;;;5073030;28;19992;-81
2021/06/15 02:28:05;;;;;;;;;;;17.20;99.90;;;;;;5074087;28;19999;-78
2021/06/15 02:30:30;;;;;;;;;;;17.20;99.90;;;;;;5072024;28;20351;-77
2021/06/15 02:33:00;;;;;;;;;;;17.20;99.90;;;;;;5073823;28;19915;-82
2021/06/15 02:35:26;;;;;;;;;;;17.20;99.90;;;;;;5065200;28;20506;-81
2021/06/15 02:37:54;;;;;;;;;;;17.10;99.90;;;;;;5069653;28;19912;-81
2021/06/15 02:40:22;;;;;;;;;;;17.10;99.90;;;;;;5071636;28;19916;-81
2021/06/15 02:42:48;;;;;;;;;;;17.10;99.90;;;;;;5071348;28;19913;-81
2021/06/15 02:45:15;;;;;;;;;;;17.10;99.90;;;;;;5068136;28;19919;-79
2021/06/15 02:47:46;;;;;;;;;;;17.10;99.90;;;;;;5072602;28;19995;-75
2021/06/15 02:50:14;;;;;;;;;;;17.00;99.90;;;;;;5073630;28;20007;-81
2021/06/15 02:52:44;;;;;;;;;;;17.00;99.90;;;;;;5073853;28;19955;-81
2021/06/15 02:55:18;;;;;;;;;;;17.10;99.90;;;;;;5073475;28;20374;-81
2021/06/15 02:57:43;;;;;;;;;;;17.00;99.90;;;;;;5072631;28;19912;-80
2021/06/15 03:00:10;;;;;;;;;;;17.00;99.90;;;;;;5068703;28;19908;-79
2021/06/15 03:02:36;;;;;;;;;;;17.00;99.90;;;;;;5071690;28;19916;-80
2021/06/15 03:05:04;;;;;;;;;;;17.00;99.90;;;;;;5072322;28;20214;-80
2021/06/15 03:07:31;;;;;;;;;;;17.00;99.90;;;;;;5071708;28;19916;-80
2021/06/15 03:09:59;;;;;;;;;;;16.90;99.90;;;;;;5070494;28;19920;-80
2021/06/15 03:12:26;;;;;;;;;;;16.90;99.90;;;;;;5071767;28;19912;-80
2021/06/15 03:14:59;;;;;;;;;;;17.00;99.90;;;;;;5070497;28;19908;-80
2021/06/15 03:17:27;;;;;;;;;;;16.90;99.90;;;;;;5071187;28;19908;-79
2021/06/15 03:20:11;;;;;;;;;;;16.90;99.90;;;;;;5071002;28;20227;-81
2021/06/15 03:22:49;;;;;;;;;;;16.90;99.90;;;;;;5071879;28;19914;-80
2021/06/15 03:25:17;;;;;;;;;;;16.90;99.90;;;;;;5071586;28;19951;-81
2021/06/15 03:27:48;;;;;;;;;;;16.80;99.90;;;;;;5071565;28;19914;-80
2021/06/15 03:30:14;;;;;;;;;;;16.70;99.90;;;;;;5071243;28;19999;-80
2021/06/15 03:32:46;;;;;;;;;;;16.70;99.90;;;;;;5071096;28;19916;-80
2021/06/15 03:35:12;;;;;;;;;;;16.70;99.90;;;;;;5070899;28;19970;-79
2021/06/15 03:37:39;;;;;;;;;;;16.70;99.90;;;;;;5071338;28;20298;-81
2021/06/15 03:40:05;;;;;;;;;;;16.60;99.90;;;;;;5071233;28;19916;-80
2021/06/15 03:42:38;;;;;;;;;;;16.70;99.90;;;;;;5074972;28;19916;-77
2021/06/15 03:45:05;;;;;;;;;;;16.70;99.90;;;;;;5073584;28;20242;-77
2021/06/15 03:47:32;;;;;;;;;;;16.70;99.90;;;;;;5075577;28;19916;-79
2021/06/15 03:49:59;;;;;;;;;;;16.70;99.90;;;;;;5075447;28;20184;-80
2021/06/15 03:52:30;;;;;;;;;;;16.60;99.90;;;;;;5073132;28;20319;-77
2021/06/15 03:54:56;;;;;;;;;;;16.60;99.90;;;;;;5071658;28;19917;-80
2021/06/15 03:57:24;;;;;;;;;;;16.60;99.90;;;;;;5088653;28;19916;-80
2021/06/15 03:59:51;;;;;;;;;;;16.60;99.90;;;;;;5075811;28;19935;-80
2021/06/15 04:02:17;;;;;;;;;;;16.60;99.90;;;;;;5074838;28;20239;-74
2021/06/15 04:04:45;;;;;;;;;;;16.60;99.90;;;;;;5075402;28;19908;-81
2021/06/15 04:07:14;;;;;;;;;;;16.60;99.90;;;;;;5076148;28;20302;-80
2021/06/15 04:09:40;;;;;;;;;;;16.60;99.90;;;;;;5075413;28;19916;-80
2021/06/15 04:12:07;;;;;;;;;;;16.60;99.90;;;;;;5073647;28;19912;-80
2021/06/15 04:14:34;;;;;;;;;;;16.60;99.90;;;;;;5076835;28;20368;-80
2021/06/15 04:17:01;;;;;;;;;;;16.60;99.90;;;;;;5075230;28;19918;-80
2021/06/15 04:19:28;;;;;;;;;;;16.60;99.90;;;;;;5072208;28;19923;-80
2021/06/15 04:21:56;;;;;;;;;;;16.60;99.90;;;;;;5076283;28;19915;-81
2021/06/15 04:24:24;;;;;;;;;;;16.60;99.90;;;;;;5068371;28;20192;-80
2021/06/15 04:26:50;;;;;;;;;;;16.60;99.90;;;;;;5073708;28;19908;-80
2021/06/15 04:29:16;;;;;;;;;;;16.60;99.90;;;;;;5075550;28;19908;-80
2021/06/15 04:31:43;;;;;;;;;;;16.60;99.90;;;;;;5068442;28;19934;-80
2021/06/15 04:34:09;;;;;;;;;;;16.60;99.90;;;;;;5070966;28;19951;-81
2021/06/15 04:36:35;;;;;;;;;;;16.60;99.90;;;;;;5075386;28;19919;-80
2021/06/15 04:39:05;;;;;;;;;;;16.60;99.90;;;;;;5076109;28;19935;-76
2021/06/15 04:41:38;;;;;;;;;;;16.60;99.90;;;;;;5074181;28;20184;-78
2021/06/15 04:44:05;;;;;;;;;;;16.70;99.90;;;;;;5074887;28;19912;-80
2021/06/15 04:46:38;;;;;;;;;;;16.60;99.90;;;;;;5071869;28;20370;-79
2021/06/15 04:49:23;;;;;;;;;;;16.60;99.90;;;;;;5070878;28;20195;-80
2021/06/15 04:51:50;;;;;;;;;;;16.60;99.90;;;;;;5046946;28;20320;-81
2021/06/15 04:54:20;;;;;;;;;;;16.60;99.90;;;;;;5068725;28;19913;-80
2021/06/15 04:56:47;;;;;;;;;;;16.60;99.90;;;;;;5062618;28;19909;-80
2021/06/15 04:59:14;;;;;;;;;;;16.60;99.90;;;;;;5072546;28;19919;-80
2021/06/15 05:01:42;;;;;;;;;;;16.60;99.90;;;;;;5070853;28;19915;-80
2021/06/15 05:04:07;;;;;;;;;;;16.60;99.90;;;;;;5073204;28;19909;-81
2021/06/15 05:06:33;;;;;;;;;;;16.60;99.90;;;;;;5067676;28;19908;-80
2021/06/15 05:09:01;;;;;;;;;;;16.70;99.90;;;;;;5066876;28;19905;-79
2021/06/15 05:11:28;;;;;;;;;;;16.70;99.90;;;;;;5070984;28;19912;-78
2021/06/15 05:13:55;;;;;;;;;;;16.70;99.90;;;;;;5072543;28;20192;-75
2021/06/15 05:16:22;;;;;;;;;;;16.70;99.90;;;;;;5071680;28;20462;-80
2021/06/15 05:18:48;;;;;;;;;;;16.70;99.90;;;;;;5072653;28;19908;-82
2021/06/15 05:21:16;;;;;;;;;;;16.70;99.90;;;;;;5075076;28;19999;-83
2021/06/15 05:23:52;;;;;;;;;;;16.80;99.90;;;;;;5073230;28;20003;-80
2021/06/15 05:26:17;;;;;;;;;;;16.80;99.90;;;;;;5074036;28;19908;-80
2021/06/15 05:28:43;;;;;;;;;;;16.80;99.90;;;;;;5072784;28;19917;-80
2021/06/15 05:31:09;;;;;;;;;;;16.80;99.90;;;;;;5073674;28;20333;-80
2021/06/15 05:33:34;;;;;;;;;;;16.90;99.90;;;;;;5073269;28;20003;-80
2021/06/15 05:36:00;;;;;;;;;;;16.90;99.90;;;;;;5073158;28;19916;-81
2021/06/15 05:38:26;;;;;;;;;;;16.90;99.90;;;;;;5072747;28;19919;-81
2021/06/15 05:40:52;;;;;;;;;;;17.00;99.90;;;;;;5072778;28;19970;-80
2021/06/15 05:43:18;;;;;;;;;;;17.10;99.90;;;;;;5072726;28;19912;-81
2021/06/15 05:45:43;;;;;;;;;;;17.10;99.90;;;;;;5071251;28;19932;-81
2021/06/15 05:48:09;;;;;;;;;;;17.10;99.90;;;;;;5074222;28;20303;-80
2021/06/15 05:50:35;;;;;;;;;;;17.10;99.90;;;;;;5072173;28;20436;-79
2021/06/15 05:53:00;;;;;;;;;;;17.20;99.90;;;;;;5073168;28;19955;-80
2021/06/15 05:55:26;;;;;;;;;;;17.20;99.90;;;;;;5074450;28;19965;-80
2021/06/15 05:57:51;;;;;;;;;;;17.20;99.90;;;;;;5073187;28;19995;-79
2021/06/15 06:00:17;;;;;;;;;;;17.20;99.90;;;;;;5072974;28;19934;-81
2021/06/15 06:02:43;;;;;;;;;;;17.20;99.90;;;;;;5073606;28;20026;-81
2021/06/15 06:10:19;;;;;;;;;;;17.40;99.90;;;;;;5071755;28;19965;-79
2021/06/15 06:12:44;;;;;;;;;;;17.50;99.90;;;;;;5072388;28;19908;-81
2021/06/15 06:15:13;;;;;;;;;;;17.60;99.90;;;;;;5073586;28;19915;-80
2021/06/15 06:17:40;;;;;;;;;;;17.60;99.90;;;;;;5072597;28;19912;-82
2021/06/15 06:20:06;;;;;;;;;;;17.70;99.90;;;;;;5076588;28;19908;-82
2021/06/15 06:22:32;;;;;;;;;;;17.80;99.90;;;;;;5073788;28;19908;-80
2021/06/15 06:25:01;;;;;;;;;;;17.90;99.90;;;;;;5068909;28;20038;-80
2021/06/15 06:27:26;;;;;;;;;;;17.90;99.90;;;;;;5071169;28;20280;-81
2021/06/15 06:29:52;;;;;;;;;;;17.90;99.90;;;;;;5067509;28;19913;-81
2021/06/15 06:32:17;;;;;;;;;;;17.80;99.90;;;;;;5069146;28;20307;-82
2021/06/15 06:34:43;;;;;;;;;;;17.70;99.90;;;;;;5072739;28;19920;-81
2021/06/15 06:37:08;;;;;;;;;;;17.70;99.90;;;;;;5071612;28;19913;-79
2021/06/15 06:39:34;;;;;;;;;;;17.70;99.90;;;;;;5067989;28;19904;-80
2021/06/15 06:41:59;;;;;;;;;;;17.80;99.90;;;;;;5069323;28;19915;-80
2021/06/15 06:44:25;;;;;;;;;;;17.80;99.90;;;;;;5072297;28;19912;-78
2021/06/15 06:46:50;;;;;;;;;;;17.80;99.90;;;;;;5066873;28;20303;-77
2021/06/15 06:49:16;;;;;;;;;;;17.80;99.90;;;;;;5067955;28;19908;-82
2021/06/15 06:51:42;;;;;;;;;;;17.70;99.90;;;;;;5066356;28;19912;-77
2021/06/15 06:54:08;;;;;;;;;;;17.70;99.90;;;;;;5071049;28;20318;-82
2021/06/15 06:56:33;;;;;;;;;;;17.80;99.90;;;;;;5071633;28;19908;-81
2021/06/15 06:58:59;;;;;;;;;;;17.80;99.90;;;;;;5073103;28;19966;-81
2021/06/15 07:01:24;;;;;;;;;;;17.80;99.90;;;;;;5072403;28;20389;-80
2021/06/15 07:03:50;;;;;;;;;;;17.80;99.90;;;;;;5073767;28;19916;-81
2021/06/15 07:06:16;;;;;;;;;;;17.80;99.90;;;;;;5072457;28;19916;-81
2021/06/15 07:08:42;;;;;;;;;;;17.80;99.90;;;;;;5071699;28;19908;-78
2021/06/15 07:11:07;;;;;;;;;;;17.80;99.90;;;;;;5071538;28;20326;-78
2021/06/15 07:13:33;;;;;;;;;;;17.80;99.90;;;;;;5073325;28;19908;-78
2021/06/15 07:15:58;;;;;;;;;;;17.90;99.90;;;;;;5072157;28;20646;-81
2021/06/15 07:18:24;;;;;;;;;;;17.90;99.90;;;;;;5069677;28;19939;-78
2021/06/15 07:20:50;;;;;;;;;;;17.90;99.90;;;;;;5073252;28;19920;-81
2021/06/15 07:23:15;;;;;;;;;;;18.00;99.90;;;;;;5069866;28;19989;-80
2021/06/15 07:25:41;;;;;;;;;;;18.10;99.90;;;;;;5069658;28;19909;-75
2021/06/15 07:28:07;;;;;;;;;;;18.20;99.90;;;;;;5071300;28;19916;-80
2021/06/15 07:30:32;;;;;;;;;;;18.40;99.90;;;;;;5070947;28;19920;-76
2021/06/15 07:32:58;;;;;;;;;;;18.50;99.90;;;;;;5070981;28;19913;-80
2021/06/15 07:35:25;;;;;;;;;;;18.50;99.90;;;;;;5068693;28;20359;-76
2021/06/15 07:37:51;;;;;;;;;;;18.40;99.90;;;;;;5059729;28;19969;-76
2021/06/15 07:40:24;;;;;;;;;;;18.30;99.90;;;;;;5068851;28;20287;-78
2021/06/15 07:42:53;;;;;;;;;;;18.20;99.90;;;;;;5068982;28;19916;-80
2021/06/15 07:45:19;;;;;;;;;;;18.00;99.90;;;;;;5071150;28;19909;-79
2021/06/15 07:47:45;;;;;;;;;;;17.90;99.90;;;;;;5071110;28;19916;-79
2021/06/15 07:50:11;;;;;;;;;;;18.10;99.90;;;;;;5069908;28;19939;-79
2021/06/15 07:52:37;;;;;;;;;;;18.40;99.90;;;;;;5071853;28;19908;-76
2021/06/15 07:55:03;;;;;;;;;;;18.40;99.90;;;;;;5072628;28;19991;-79
2021/06/15 07:57:28;;;;;;;;;;;18.40;99.90;;;;;;5073703;28;19908;-78
2021/06/15 07:59:54;;;;;;;;;;;18.40;99.90;;;;;;5073573;28;20253;-78
2021/06/15 08:02:19;;;;;;;;;;;18.30;99.90;;;;;;5071739;28;20286;-79
2021/06/15 08:04:45;;;;;;;;;;;18.20;99.90;;;;;;5070024;28;19935;-80
2021/06/15 08:07:11;;;;;;;;;;;18.40;99.90;;;;;;5073358;28;20006;-75
2021/06/15 08:09:36;;;;;;;;;;;18.50;99.90;;;;;;5063178;28;19912;-78
2021/06/15 08:12:02;;;;;;;;;;;18.50;99.90;;;;;;5071042;28;20330;-75
2021/06/15 08:14:28;;;;;;;;;;;18.70;99.90;;;;;;5072903;28;20003;-79
2021/06/15 08:16:54;;;;;;;;;;;18.70;99.90;;;;;;5071053;28;20007;-79
2021/06/15 08:19:19;;;;;;;;;;;18.70;99.90;;;;;;5072483;28;19909;-78
2021/06/15 08:21:45;;;;;;;;;;;18.70;99.90;;;;;;5071281;28;19905;-78
2021/06/15 08:24:14;;;;;;;;;;;18.60;99.90;;;;;;5072265;28;20278;-77
2021/06/15 08:26:40;;;;;;;;;;;18.60;99.90;;;;;;5071856;28;19904;-78
2021/06/15 08:29:06;;;;;;;;;;;18.60;99.90;;;;;;5074437;28;20018;-78
2021/06/15 08:31:31;;;;;;;;;;;18.60;99.90;;;;;;5072676;28;19920;-79
2021/06/15 08:33:57;;;;;;;;;;;18.80;99.90;;;;;;5071825;28;20203;-79
2021/06/15 08:36:22;;;;;;;;;;;19.10;99.90;;;;;;5076381;28;20296;-77
2021/06/15 08:38:48;;;;;;;;;;;19.20;99.90;;;;;;5074341;28;20319;-77
2021/06/15 08:41:17;;;;;;;;;;;19.10;99.90;;;;;;5076275;28;19904;-79
2021/06/15 08:43:42;;;;;;;;;;;19.10;99.90;;;;;;5069422;28;19920;-77
2021/06/15 08:46:08;;;;;;;;;;;19.30;99.90;;;;;;5076180;28;19905;-77
2021/06/15 08:48:34;;;;;;;;;;;19.30;99.90;;;;;;5075725;28;19987;-77
2021/06/15 08:51:00;;;;;;;;;;;19.30;99.90;;;;;;5073512;28;20211;-77
2021/06/15 08:53:26;;;;;;;;;;;19.30;99.90;;;;;;5073391;28;19919;-75
2021/06/15 08:55:55;;;;;;;;;;;19.30;99.90;;;;;;5072816;28;19922;-77
2021/06/15 08:58:20;;;;;;;;;;;19.40;99.90;;;;;;5073496;28;19908;-75
2021/06/15 09:00:46;;;;;;;;;;;19.60;99.90;;;;;;5073466;28;19909;-78
2021/06/15 09:03:12;;;;;;;;;;;19.50;99.90;;;;;;5073883;28;19919;-74
2021/06/15 09:05:38;;;;;;;;;;;19.50;99.90;;;;;;5069521;28;19917;-76
2021/06/15 09:08:04;;;;;;;;;;;19.50;99.90;;;;;;5067973;28;19958;-76
2021/06/15 09:10:31;;;;;;;;;;;19.40;99.90;;;;;;5072449;28;19916;-78
2021/06/15 09:12:56;;;;;;;;;;;19.40;99.90;;;;;;5065629;28;19943;-76
2021/06/15 09:15:23;;;;;;;;;;;19.50;99.90;;;;;;5061852;28;20286;-77
2021/06/15 09:17:49;;;;;;;;;;;19.40;99.90;;;;;;5071855;28;19928;-78
2021/06/15 09:20:18;;;;;;;;;;;19.20;99.90;;;;;;5068322;28;19915;-75
2021/06/15 09:22:43;;;;;;;;;;;19.40;99.90;;;;;;5071039;28;19908;-76
2021/06/15 09:25:13;;;;;;;;;;;19.50;99.90;;;;;;5069023;28;20214;-75
2021/06/15 09:27:39;;;;;;;;;;;19.40;99.90;;;;;;5068101;28;19910;-75
2021/06/15 09:30:09;;;;;;;;;;;19.50;99.90;;;;;;5067624;28;20013;-78
2021/06/15 09:32:38;;;;;;;;;;;19.40;99.90;;;;;;5069368;28;20291;-79
2021/06/15 09:35:05;;;;;;;;;;;19.50;99.90;;;;;;5069834;28;19920;-77
2021/06/15 09:37:36;;;;;;;;;;;19.70;99.90;;;;;;5070135;28;19920;-79
2021/06/15 09:40:15;;;;;;;;;;;19.60;99.90;;;;;;5070113;28;19976;-75
2021/06/15 09:42:53;;;;;;;;;;;19.60;99.90;;;;;;5058014;28;19908;-76
2021/06/15 09:45:19;;;;;;;;;;;19.60;99.90;;;;;;5068423;28;19940;-77
2021/06/15 09:47:45;;;;;;;;;;;19.60;99.90;;;;;;5070967;28;19908;-77
2021/06/15 09:50:10;;;;;;;;;;;19.70;99.90;;;;;;5072166;28;19930;-75
2021/06/15 09:52:36;;;;;;;;;;;19.90;99.90;;;;;;5071547;28;20433;-76
2021/06/15 09:55:06;;;;;;;;;;;19.90;99.90;;;;;;5052378;28;19921;-74
2021/06/15 09:57:34;;;;;;;;;;;19.90;99.90;;;;;;5065953;28;19905;-75
2021/06/15 10:00:08;;;;;;;;;;;19.90;99.90;;;;;;5071222;28;19940;-79
2021/06/15 10:02:35;;;;;;;;;;;19.90;99.90;;;;;;5072509;28;19943;-77
2021/06/15 10:05:20;;;;;;;;;;;19.80;99.90;;;;;;5067985;28;19927;-74
2021/06/15 10:07:45;;;;;;;;;;;19.90;99.90;;;;;;5073931;28;19916;-77
2021/06/15 10:10:11;;;;;;;;;;;19.90;99.80;;;;;;5062623;28;19912;-75
2021/06/15 10:12:37;;;;;;;;;;;19.90;99.90;;;;;;5070527;28;19908;-75
2021/06/15 10:15:03;;;;;;;;;;;19.90;99.90;;;;;;5072140;28;20230;-75
2021/06/15 10:17:29;;;;;;;;;;;20.00;99.90;;;;;;5072133;28;20318;-75
2021/06/15 10:19:54;;;;;;;;;;;20.10;99.90;;;;;;5072977;28;19918;-76
2021/06/15 10:22:20;;;;;;;;;;;20.10;99.90;;;;;;5070321;28;19908;-75
2021/06/15 10:24:48;;;;;;;;;;;20.10;99.90;;;;;;5073487;28;19957;-75
2021/06/15 10:27:13;;;;;;;;;;;20.10;99.90;;;;;;5075395;28;19912;-76
2021/06/15 10:29:40;;;;;;;;;;;20.00;99.70;;;;;;5072091;28;19923;-76
2021/06/15 10:32:10;;;;;;;;;;;19.90;99.90;;;;;;5071744;28;20299;-76
2021/06/15 10:34:49;;;;;;;;;;;20.10;99.90;;;;;;5064629;28;19970;-76
2021/06/15 10:37:45;;;;;;;;;;;20.20;99.90;;;;;;5067259;28;19920;-76
2021/06/15 10:40:17;;;;;;;;;;;20.20;99.80;;;;;;4973369;28;20340;-74
2021/06/15 10:43:02;;;;;;;;;;;20.30;99.40;;;;;;4987844;28;19989;-77
2021/06/15 10:45:28;;;;;;;;;;;20.30;99.90;;;;;;4988705;28;19917;-76
2021/06/15 10:48:06;;;;;;;;;;;20.20;99.90;;;;;;4988213;28;19944;-77
2021/06/15 10:50:36;;;;;;;;;;;20.30;98.60;;;;;;4990069;28;19920;-75
2021/06/15 10:53:04;;;;;;;;;;;20.50;99.90;;;;;;4983385;28;19917;-74
2021/06/15 10:55:38;;;;;;;;;;;20.60;98.30;;;;;;4975164;28;19909;-75
2021/06/15 10:58:03;;;;;;;;;;;20.70;98.80;;;;;;4988136;28;19969;-76
2021/06/15 11:00:29;;;;;;;;;;;20.60;97.40;;;;;;4992225;28;19913;-76
2021/06/15 11:03:13;;;;;;;;;;;20.60;99.50;;;;;;4985301;28;20000;-76
2021/06/15 11:05:39;;;;;;;;;;;20.60;99.20;;;;;;4989306;28;19905;-74
2021/06/15 11:08:14;;;;;;;;;;;20.60;98.80;;;;;;4962172;28;20045;-77
2021/06/15 11:10:52;;;;;;;;;;;20.60;98.20;;;;;;4967459;28;20005;-74
2021/06/15 11:13:17;;;;;;;;;;;20.70;98.10;;;;;;4988299;28;20267;-76
2021/06/15 11:15:57;;;;;;;;;;;20.90;98.70;;;;;;4984440;28;19931;-76
2021/06/15 11:18:22;;;;;;;;;;;20.90;98.70;;;;;;5072578;28;19917;-77
2021/06/15 11:20:48;;;;;;;;;;;20.80;99.70;;;;;;5073041;28;19920;-78
2021/06/15 11:23:13;;;;;;;;;;;20.90;99.90;;;;;;5071586;28;19908;-74
2021/06/15 11:25:50;;;;;;;;;;;21.20;98.80;;;;;;5071266;28;20227;-76
2021/06/15 11:28:34;;;;;;;;;;;21.30;99.00;;;;;;5072644;28;19916;-77
2021/06/15 11:31:19;;;;;;;;;;;21.30;97.10;;;;;;5071739;28;19923;-77
2021/06/15 11:34:03;;;;;;;;;;;21.20;99.50;;;;;;5070364;28;20279;-74
2021/06/15 11:36:41;;;;;;;;;;;21.30;97.40;;;;;;5067077;28;20018;-74
2021/06/15 11:39:21;;;;;;;;;;;21.30;98.60;;;;;;5068835;28;19920;-77
2021/06/15 11:42:05;;;;;;;;;;;21.20;99.00;;;;;;5064285;28;19908;-74
2021/06/15 11:44:55;;;;;;;;;;;21.10;98.40;;;;;;5072336;28;20020;-76
2021/06/15 11:47:30;;;;;;;;;;;21.00;98.90;;;;;;5071471;28;19923;-76
2021/06/15 11:50:03;;;;;;;;;;;20.90;99.90;;;;;;5071337;28;19924;-74
2021/06/15 11:52:29;;;;;;;;;;;21.10;98.00;;;;;;5073646;28;19928;-75
2021/06/15 11:54:55;;;;;;;;;;;21.00;98.60;;;;;;5072806;28;19912;-75
2021/06/15 11:57:21;;;;;;;;;;;21.10;98.80;;;;;;5071026;28;19916;-74
2021/06/15 11:59:46;;;;;;;;;;;21.00;98.90;;;;;;5072654;28;19951;-75
2021/06/15 12:02:12;;;;;;;;;;;20.90;98.80;;;;;;5072769;28;19912;-76
2021/06/15 12:04:38;;;;;;;;;;;20.90;99.90;;;;;;5075406;28;19911;-76
2021/06/15 12:07:17;;;;;;;;;;;20.90;98.80;;;;;;5073977;28;19904;-75
2021/06/15 12:10:02;;;;;;;;;;;21.00;98.10;;;;;;5075536;28;19912;-77
2021/06/15 12:12:28;;;;;;;;;;;20.90;97.70;;;;;;5075463;28;20003;-75
2021/06/15 12:14:54;;;;;;;;;;;20.90;99.50;;;;;;5075784;28;20008;-76
2021/06/15 12:17:19;;;;;;;;;;;20.80;99.70;;;;;;5073486;28;19938;-76
2021/06/15 12:19:45;;;;;;;;;;;20.60;99.20;;;;;;5074900;28;19915;-77
2021/06/15 12:22:14;;;;;;;;;;;20.50;98.60;;;;;;5071526;28;20196;-76
2021/06/15 12:24:43;;;;;;;;;;;20.50;99.80;;;;;;5074176;28;19904;-74
2021/06/15 12:27:18;;;;;;;;;;;20.60;99.50;;;;;;5079372;28;19926;-76
2021/06/15 12:29:43;;;;;;;;;;;20.60;99.40;;;;;;5074578;28;19904;-76
2021/06/15 12:32:09;;;;;;;;;;;20.60;99.50;;;;;;5075051;28;19916;-77
2021/06/15 12:34:35;;;;;;;;;;;20.60;99.40;;;;;;5075271;28;19916;-76
2021/06/15 12:37:03;;;;;;;;;;;20.40;98.70;;;;;;5076120;28;19908;-77
2021/06/15 12:39:30;;;;;;;;;;;20.50;99.00;;;;;;5074198;28;19904;-77
2021/06/15 12:41:58;;;;;;;;;;;20.70;99.30;;;;;;5074747;28;19908;-78
2021/06/15 12:44:29;;;;;;;;;;;20.90;99.90;;;;;;5074814;28;19905;-77
2021/06/15 12:47:01;;;;;;;;;;;21.20;97.90;;;;;;5074575;28;19995;-77
2021/06/15 12:49:27;;;;;;;;;;;21.30;99.10;;;;;;5069382;28;19908;-77
2021/06/15 12:52:05;;;;;;;;;;;21.20;97.60;;;;;;5075936;28;20302;-77
2021/06/15 12:54:40;;;;;;;;;;;21.20;97.40;;;;;;5076644;28;20219;-77
2021/06/15 12:57:06;;;;;;;;;;;21.20;97.50;;;;;;5070172;28;19978;-76
2021/06/15 12:59:36;;;;;;;;;;;21.10;97.50;;;;;;5075762;28;19913;-75
2021/06/15 13:02:14;;;;;;;;;;;21.10;99.50;;;;;;5074078;28;19971;-76
2021/06/15 13:04:46;;;;;;;;;;;21.00;97.80;;;;;;5068017;28;19915;-78
2021/06/15 13:07:12;;;;;;;;;;;21.10;97.40;;;;;;5072838;28;19968;-75
2021/06/15 13:09:38;;;;;;;;;;;21.00;98.80;;;;;;5071919;28;19916;-75
2021/06/15 13:12:07;;;;;;;;;;;21.10;98.30;;;;;;5075028;28;19912;-75
2021/06/15 13:14:33;;;;;;;;;;;21.20;98.40;;;;;;5073621;28;19905;-77
2021/06/15 13:17:00;;;;;;;;;;;21.20;98.90;;;;;;5075027;28;20210;-76
2021/06/15 13:19:35;;;;;;;;;;;21.10;98.60;;;;;;5074444;28;19912;-76
2021/06/15 13:22:01;;;;;;;;;;;21.00;98.60;;;;;;5074905;28;20058;-76
2021/06/15 13:24:34;;;;;;;;;;;21.00;98.80;;;;;;5075274;28;19993;-75
2021/06/15 13:27:18;;;;;;;;;;;21.10;98.00;;;;;;5079224;28;19916;-76
2021/06/15 13:29:44;;;;;;;;;;;21.00;98.50;;;;;;5074873;28;19913;-78
2021/06/15 13:32:17;;;;;;;;;;;20.90;97.40;;;;;;5072857;28;19915;-77
2021/06/15 13:35:04;;;;;;;;;;;21.00;97.30;;;;;;5067939;28;19927;-74
2021/06/15 13:37:31;;;;;;;;;;;21.10;99.70;;;;;;5073805;28;19965;-77
2021/06/15 13:39:57;;;;;;;;;;;21.00;99.10;;;;;;5072768;28;19904;-77
2021/06/15 13:42:24;;;;;;;;;;;21.10;98.20;;;;;;5074225;28;19904;-75
2021/06/15 13:45:06;;;;;;;;;;;21.10;97.80;;;;;;5074126;28;20269;-75
2021/06/15 13:47:32;;;;;;;;;;;21.20;97.00;;;;;;5072856;28;19945;-76
2021/06/15 13:49:57;;;;;;;;;;;21.20;98.90;;;;;;5075819;28;19904;-74
2021/06/15 13:52:23;;;;;;;;;;;21.30;96.70;;;;;;5074782;28;19908;-76
2021/06/15 13:54:48;;;;;;;;;;;21.30;96.90;;;;;;5072924;28;19995;-75
2021/06/15 13:57:14;;;;;;;;;;;21.20;96.30;;;;;;5074217;28;19928;-75
2021/06/15 13:59:40;;;;;;;;;;;21.20;98.10;;;;;;5073291;28;20316;-75
2021/06/15 14:02:06;;;;;;;;;;;21.20;96.00;;;;;;5073284;28;19912;-76
2021/06/15 14:04:31;;;;;;;;;;;21.20;96.40;;;;;;5073951;28;19924;-76
2021/06/15 14:06:57;;;;;;;;;;;21.30;97.10;;;;;;5073890;28;19915;-74
2021/06/15 14:09:22;;;;;;;;;;;21.40;97.20;;;;;;5073786;28;20267;-74
2021/06/15 14:11:48;;;;;;;;;;;21.40;98.80;;;;;;5074377;28;20276;-76
2021/06/15 14:14:13;;;;;;;;;;;21.40;96.60;;;;;;5074734;28;20192;-77
2021/06/15 14:16:39;;;;;;;;;;;21.50;97.00;;;;;;5074943;28;19905;-75
2021/06/15 14:19:05;;;;;;;;;;;21.50;95.60;;;;;;5072414;28;20445;-74
2021/06/15 14:21:37;;;;;;;;;;;21.50;96.30;;;;;;5073773;28;20102;-77
2021/06/15 14:24:06;;;;;;;;;;;21.30;97.70;;;;;;5072388;28;20289;-76
2021/06/15 14:26:32;;;;;;;;;;;21.30;97.20;;;;;;5075256;28;19912;-74